createdAt,value
2023-04-10T00:03:53.214Z,7.78
2023-04-10T00:14:06.660Z,6.40
2023-04-10T00:19:15.081Z,9.82
2023-04-10T00:24:21.677Z,5.83
2023-04-10T00:29:28.376Z,10.00
2023-04-10T00:34:36.540Z,9.75
2023-04-10T00:39:42.916Z,8.80
2023-04-10T00:44:49.274Z,9.10
2023-04-10T00:49:57.249Z,7.53
2023-04-10T00:55:04.166Z,9.27
2023-04-10T01:00:12.519Z,7.20
2023-04-10T01:05:20.399Z,7.35
2023-04-10T01:15:49.656Z,9.10
2023-04-10T01:20:59.358Z,8.63
2023-04-10T01:26:08.213Z,8.65
2023-04-10T01:31:22.793Z,9.98
2023-04-10T01:36:35.780Z,11.50
2023-04-10T01:41:46.415Z,14.68
2023-04-10T01:46:57.145Z,12.40
2023-04-10T01:52:05.020Z,13.25
2023-04-10T01:57:14.453Z,7.53
2023-04-10T02:07:48.402Z,9.40
2023-04-10T02:13:01.696Z,10.02
2023-04-10T02:18:13.056Z,9.75
2023-04-10T02:23:20.838Z,9.88
2023-04-10T02:28:27.630Z,14.95
2023-04-10T02:33:35.635Z,7.75
2023-04-10T02:38:42.028Z,8.82
2023-04-10T02:43:50.340Z,10.48
2023-04-10T02:49:06.708Z,9.52
2023-04-10T02:54:13.244Z,8.52
2023-04-10T02:59:22.259Z,10.82
2023-04-10T03:04:30.461Z,10.55
2023-04-10T03:09:37.326Z,7.45
2023-04-10T03:14:43.900Z,7.30
2023-04-10T03:19:51.538Z,14.93
2023-04-10T03:24:59.220Z,11.90
2023-04-10T03:30:06.338Z,14.82
2023-04-10T03:35:20.859Z,14.25
2023-04-10T03:40:27.164Z,13.57
2023-04-10T03:45:34.933Z,11.65
2023-04-10T03:50:43.793Z,14.45
2023-04-10T03:55:50.552Z,12.00
2023-04-10T04:00:57.474Z,10.45
2023-04-10T04:06:14.123Z,11.90
2023-04-10T04:11:30.058Z,15.20
2023-04-10T04:16:40.304Z,9.63
2023-04-10T04:22:08.359Z,9.82
2023-04-10T04:27:35.049Z,15.23
2023-04-10T04:33:01.069Z,12.15
2023-04-10T04:38:27.168Z,11.25
2023-04-10T04:43:45.270Z,11.85
2023-04-10T04:49:01.160Z,8.98
2023-04-10T04:54:17.620Z,12.15
2023-04-10T04:59:46.012Z,10.40
2023-04-10T05:05:16.210Z,13.25
2023-04-10T05:10:34.361Z,10.18
2023-04-10T05:15:54.937Z,10.20
2023-04-10T05:21:31.634Z,12.60
2023-04-10T05:26:58.190Z,10.75
2023-04-10T05:48:29.118Z,10.10
2023-04-10T05:54:00.123Z,10.52
2023-04-10T05:59:20.707Z,11.43
2023-04-10T06:05:07.994Z,11.77
2023-04-10T06:10:19.316Z,13.63
2023-04-10T06:15:27.329Z,12.02
2023-04-10T06:20:35.499Z,10.43
2023-04-10T06:25:43.625Z,11.23
2023-04-10T06:30:50.354Z,12.77
2023-04-10T06:35:58.440Z,13.95
2023-04-10T06:41:07.196Z,13.23
2023-04-10T06:46:16.722Z,12.13
2023-04-10T06:51:34.932Z,13.27
2023-04-10T06:56:43.533Z,12.02
2023-04-10T07:01:51.535Z,13.57
2023-04-10T07:07:04.634Z,12.57
2023-04-10T07:12:13.835Z,10.80
2023-04-10T07:17:22.615Z,11.15
2023-04-10T07:27:42.165Z,12.85
2023-04-10T07:32:51.751Z,8.65
2023-04-10T07:38:01.515Z,8.65
2023-04-10T07:43:10.164Z,11.35
2023-04-10T07:48:17.806Z,11.00
2023-04-10T07:53:35.352Z,9.45
2023-04-10T07:58:48.139Z,10.40
2023-04-10T08:03:57.352Z,7.45
2023-04-10T08:09:08.260Z,9.38
2023-04-10T08:14:18.237Z,11.43
2023-04-10T08:19:25.702Z,8.70
2023-04-10T08:24:34.834Z,10.82
2023-04-10T08:29:42.555Z,7.55
2023-04-10T08:34:52.792Z,8.40
2023-04-10T08:40:02.361Z,8.48
2023-04-10T08:45:16.935Z,8.57
2023-04-10T08:50:31.778Z,6.72
2023-04-10T08:55:46.284Z,7.40
2023-04-10T09:01:00.778Z,7.10
2023-04-10T09:11:25.614Z,10.82
2023-04-10T09:16:37.469Z,8.45
2023-04-10T09:21:56.282Z,8.07
2023-04-10T09:27:10.866Z,6.80
2023-04-10T09:32:43.572Z,6.55
2023-04-10T09:37:56.686Z,4.80
2023-04-10T09:43:30.762Z,5.50
2023-04-10T09:49:02.796Z,5.18
2023-04-10T09:54:20.949Z,5.57
2023-04-10T09:59:40.219Z,5.35
2023-04-10T10:04:55.092Z,6.25
2023-04-10T10:10:06.243Z,5.22
2023-04-10T10:15:26.763Z,5.55
2023-04-10T10:20:41.518Z,3.67
2023-04-10T10:25:54.767Z,5.35
2023-04-10T10:31:11.657Z,4.63
2023-04-10T10:36:24.711Z,4.43
2023-04-10T10:41:43.590Z,3.42
2023-04-10T10:47:03.461Z,4.82
2023-04-10T10:52:12.420Z,5.88
2023-04-10T10:57:51.439Z,4.38
2023-04-10T11:03:35.280Z,7.22
2023-04-10T11:08:50.129Z,2.53
2023-04-10T11:14:22.031Z,3.58
2023-04-10T11:19:33.504Z,3.25
2023-04-10T11:25:01.431Z,7.25
2023-04-10T11:30:33.235Z,3.60
2023-04-10T11:35:48.881Z,3.80
2023-04-10T11:41:07.009Z,6.03
2023-04-10T11:46:15.894Z,4.97
2023-04-10T11:51:25.909Z,3.90
2023-04-10T11:56:34.061Z,4.90
2023-04-10T12:01:44.067Z,2.83
2023-04-10T12:06:59.497Z,4.30
2023-04-10T12:12:12.409Z,5.60
2023-04-10T12:17:21.816Z,6.90
2023-04-10T12:22:38.169Z,10.03
2023-04-10T12:27:53.304Z,2.22
2023-04-10T12:33:04.472Z,3.42
2023-04-10T12:38:14.263Z,3.65
2023-04-10T12:43:36.308Z,5.55
2023-04-10T12:48:45.636Z,2.85
2023-04-10T12:53:58.324Z,5.73
2023-04-10T12:59:10.017Z,5.93
2023-04-10T13:04:17.504Z,6.33
2023-04-10T13:09:29.077Z,4.88
2023-04-10T13:14:41.227Z,5.65
2023-04-10T13:19:49.596Z,4.68
2023-04-10T13:24:59.984Z,2.88
2023-04-10T13:30:10.140Z,5.10
2023-04-10T13:35:22.121Z,4.05
2023-04-10T13:40:37.554Z,3.50
2023-04-10T13:45:46.231Z,3.10
2023-04-10T13:51:03.730Z,4.53
2023-04-10T13:56:13.779Z,4.22
2023-04-10T14:01:24.426Z,4.70
2023-04-10T14:06:42.888Z,6.60
2023-04-10T14:11:53.885Z,2.80
2023-04-10T14:17:05.132Z,3.92
2023-04-10T14:22:15.283Z,2.45
2023-04-10T14:27:25.475Z,3.20
2023-04-10T14:32:39.138Z,3.88
2023-04-10T14:37:48.709Z,4.45
2023-04-10T14:48:12.275Z,2.15
2023-04-10T14:53:25.301Z,4.70
2023-04-10T14:58:36.521Z,5.55
2023-04-10T15:03:44.992Z,4.28
2023-04-10T15:08:57.930Z,3.28
2023-04-10T15:14:15.875Z,3.58
2023-04-10T15:19:28.950Z,3.35
2023-04-10T15:24:50.077Z,2.03
2023-04-10T15:30:03.469Z,4.78
2023-04-10T15:35:16.848Z,2.47
2023-04-10T15:40:25.416Z,2.35
2023-04-10T15:45:38.768Z,6.30
2023-04-10T15:50:48.425Z,4.68
2023-04-10T15:55:59.418Z,4.40
2023-04-10T16:01:11.751Z,3.35
2023-04-10T16:06:22.220Z,4.75
2023-04-10T16:11:32.769Z,5.25
2023-04-10T16:16:45.814Z,2.97
2023-04-10T16:21:55.682Z,5.88
2023-04-10T16:27:10.993Z,5.25
2023-04-10T16:32:23.274Z,8.10
2023-04-10T16:37:36.998Z,8.93
2023-04-10T16:42:51.445Z,5.45
2023-04-10T16:48:06.058Z,3.63
2023-04-10T16:53:20.635Z,4.72
2023-04-10T16:58:41.766Z,4.78
2023-04-10T17:03:59.830Z,5.90
2023-04-10T17:09:10.838Z,5.30
2023-04-10T17:14:24.538Z,5.00
2023-04-10T17:19:45.000Z,7.60
2023-04-10T17:25:02.366Z,7.40
2023-04-10T17:30:22.522Z,6.38
2023-04-10T17:35:46.395Z,6.97
2023-04-10T17:41:01.724Z,5.20
2023-04-10T17:46:31.470Z,17.63
2023-04-10T17:51:55.821Z,13.85
2023-04-10T17:57:21.312Z,8.70
2023-04-10T18:02:43.508Z,7.80
2023-04-10T18:08:07.569Z,11.13
2023-04-10T18:13:24.082Z,10.98
2023-04-10T18:18:36.496Z,13.55
2023-04-10T18:23:53.181Z,11.65
2023-04-10T18:29:13.921Z,9.15
2023-04-10T18:34:38.750Z,8.65
2023-04-10T18:40:15.980Z,10.20
2023-04-10T18:45:44.194Z,18.05
2023-04-10T18:51:23.886Z,10.80
2023-04-10T18:56:42.553Z,10.38
2023-04-10T19:02:04.865Z,8.88
2023-04-10T19:07:23.256Z,17.30
2023-04-10T19:12:45.597Z,11.93
2023-04-10T19:18:04.035Z,10.70
2023-04-10T19:23:27.707Z,9.65
2023-04-10T19:28:46.320Z,10.15
2023-04-10T19:34:05.729Z,12.80
2023-04-10T19:39:35.290Z,14.10
2023-04-10T19:44:55.816Z,12.10
2023-04-10T19:50:17.135Z,25.20
2023-04-10T19:55:35.995Z,14.35
2023-04-10T20:00:54.370Z,16.95
2023-04-10T20:06:14.583Z,14.32
2023-04-10T20:11:32.888Z,16.38
2023-04-10T20:16:49.912Z,12.13
2023-04-10T20:22:05.901Z,20.25
2023-04-10T20:27:20.191Z,14.90
2023-04-10T20:32:41.052Z,14.02
2023-04-10T20:37:54.810Z,15.73
2023-04-10T20:43:11.982Z,16.77
2023-04-10T20:48:22.604Z,14.98
2023-04-10T20:53:32.020Z,18.77
2023-04-10T20:58:42.081Z,46.80
2023-04-10T21:03:53.811Z,37.55
2023-04-10T21:09:06.520Z,39.67
2023-04-10T21:14:18.722Z,38.75
2023-04-10T21:19:29.025Z,38.83
2023-04-10T21:24:36.574Z,37.17
2023-04-10T21:29:43.570Z,39.28
2023-04-10T21:34:52.669Z,36.70
2023-04-10T21:40:01.664Z,35.97
2023-04-10T21:45:12.484Z,31.50
2023-04-10T21:50:25.355Z,40.03
2023-04-10T21:55:33.198Z,25.30
2023-04-10T22:00:41.980Z,27.17
2023-04-10T22:05:51.468Z,25.80
2023-04-10T22:10:58.491Z,30.30
2023-04-10T22:16:07.733Z,30.38
2023-04-10T22:21:15.801Z,35.00
2023-04-10T22:26:25.121Z,39.08
2023-04-10T22:31:31.869Z,38.25
2023-04-10T22:36:40.158Z,37.17
2023-04-10T22:41:47.004Z,40.63
2023-04-10T22:46:53.626Z,30.38
2023-04-10T22:52:01.499Z,38.40
2023-04-10T22:57:08.088Z,36.28
2023-04-10T23:02:14.812Z,40.03
2023-04-10T23:07:22.876Z,38.72
2023-04-10T23:12:29.326Z,38.97
2023-04-10T23:17:35.756Z,36.40
2023-04-10T23:22:43.448Z,35.45
2023-04-10T23:27:49.880Z,37.92
2023-04-10T23:32:56.365Z,36.25
2023-04-10T23:38:04.373Z,32.47
2023-04-10T23:43:10.742Z,43.13
2023-04-10T23:48:17.044Z,46.25
2023-04-10T23:53:24.795Z,45.33
2023-04-10T23:58:31.135Z,40.92
